createdAt,value
2017-09-13T00:00:27.538Z,0
2017-09-13T00:01:28.259Z,0
2017-09-13T00:02:29.001Z,0
2017-09-13T00:03:29.741Z,0
2017-09-13T00:04:30.459Z,0
2017-09-13T00:05:31.175Z,0
2017-09-13T00:06:31.897Z,0
2017-09-13T00:07:32.612Z,0
2017-09-13T00:08:33.356Z,0
2017-09-13T00:09:34.070Z,0
2017-09-13T00:10:34.785Z,0
2017-09-13T00:11:35.502Z,0
2017-09-13T00:12:36.226Z,0
2017-09-13T00:13:36.966Z,0
2017-09-13T00:14:37.684Z,0
2017-09-13T00:15:38.421Z,0
2017-09-13T00:16:39.161Z,0
2017-09-13T00:17:39.900Z,0
2017-09-13T00:18:40.619Z,0
2017-09-13T00:19:41.336Z,0
2017-09-13T00:20:42.054Z,0
2017-09-13T00:22:58.372Z,0
2017-09-13T00:23:59.091Z,0
2017-09-13T00:24:59.809Z,0
2017-09-13T00:26:00.524Z,0
2017-09-13T00:27:01.240Z,0
2017-09-13T00:28:01.960Z,0
2017-09-13T00:29:02.692Z,0
2017-09-13T00:30:03.429Z,0
2017-09-13T00:31:04.147Z,0
2017-09-13T00:32:04.863Z,0
2017-09-13T00:33:05.579Z,0
2017-09-13T00:34:06.294Z,0
2017-09-13T00:35:07.009Z,0
2017-09-13T00:36:07.725Z,0
2017-09-13T00:37:08.443Z,0
2017-09-13T00:38:09.160Z,0
2017-09-13T00:39:09.875Z,0
2017-09-13T00:40:10.587Z,0
2017-09-13T00:41:11.302Z,0
2017-09-13T00:42:12.016Z,0
2017-09-13T00:43:12.730Z,0
2017-09-13T00:44:13.447Z,0
2017-09-13T00:45:14.166Z,0
2017-09-13T00:46:14.883Z,0
2017-09-13T00:47:15.597Z,0
2017-09-13T00:48:16.312Z,0
2017-09-13T00:49:17.028Z,0
2017-09-13T00:50:17.746Z,0
2017-09-13T00:51:18.463Z,0
2017-09-13T00:52:19.179Z,0
2017-09-13T00:53:19.895Z,0
2017-09-13T00:54:20.612Z,0
2017-09-13T00:55:21.327Z,0
2017-09-13T00:56:22.040Z,0
2017-09-13T00:57:22.756Z,0
2017-09-13T00:58:23.471Z,0
2017-09-13T00:59:24.187Z,0
2017-09-13T01:00:24.923Z,0
2017-09-13T01:01:25.636Z,0
2017-09-13T01:02:26.352Z,0
2017-09-13T01:03:27.086Z,0
2017-09-13T01:04:27.801Z,0
2017-09-13T01:05:28.518Z,0
2017-09-13T01:06:29.255Z,0
2017-09-13T01:07:29.991Z,0
2017-09-13T01:08:30.703Z,0
2017-09-13T01:09:31.438Z,0
2017-09-13T01:10:32.175Z,0
2017-09-13T01:11:32.891Z,0
2017-09-13T01:12:33.614Z,0
2017-09-13T01:13:34.320Z,0
2017-09-13T01:14:35.037Z,0
2017-09-13T01:15:35.752Z,0
2017-09-13T01:16:36.465Z,0
2017-09-13T01:17:37.202Z,0
2017-09-13T01:18:37.918Z,0
2017-09-13T01:19:38.634Z,0
2017-09-13T01:20:39.351Z,0
2017-09-13T01:21:40.083Z,0
2017-09-13T01:22:40.796Z,0
2017-09-13T01:23:41.514Z,0
2017-09-13T01:24:42.252Z,0
2017-09-13T01:25:42.967Z,0
2017-09-13T01:26:43.707Z,0
2017-09-13T01:27:44.436Z,0
2017-09-13T01:28:45.171Z,0
2017-09-13T01:29:45.886Z,0
2017-09-13T01:30:46.602Z,0
2017-09-13T01:31:47.317Z,0
2017-09-13T01:32:48.052Z,0
2017-09-13T01:33:48.792Z,0
2017-09-13T01:34:49.507Z,0
2017-09-13T01:35:50.222Z,0
2017-09-13T01:36:50.937Z,0
2017-09-13T01:37:51.655Z,0
2017-09-13T01:38:52.370Z,0
2017-09-13T01:39:53.085Z,0
2017-09-13T01:40:53.818Z,0
2017-09-13T01:41:54.537Z,0
2017-09-13T01:42:55.253Z,0
2017-09-13T01:43:55.967Z,0
2017-09-13T01:44:56.704Z,0
2017-09-13T01:45:57.421Z,0
2017-09-13T01:46:58.138Z,0
2017-09-13T01:47:58.851Z,0
2017-09-13T01:48:59.566Z,0
2017-09-13T01:50:00.285Z,0
2017-09-13T01:51:01.000Z,0
2017-09-13T01:52:01.713Z,0
2017-09-13T01:53:02.431Z,0
2017-09-13T01:54:03.147Z,0
2017-09-13T01:55:03.862Z,0
2017-09-13T01:56:04.596Z,0
2017-09-13T01:57:05.312Z,0
2017-09-13T01:58:06.047Z,0
2017-09-13T01:59:06.762Z,0
2017-09-13T02:00:07.479Z,0
2017-09-13T02:01:08.218Z,0
2017-09-13T02:02:08.955Z,0
2017-09-13T02:03:09.670Z,0
2017-09-13T02:04:10.385Z,0
2017-09-13T02:05:11.097Z,0
2017-09-13T02:06:11.816Z,0
2017-09-13T02:07:12.552Z,0
2017-09-13T02:08:13.289Z,0
2017-09-13T02:09:14.005Z,0
2017-09-13T02:10:14.724Z,0
2017-09-13T02:11:15.461Z,0
2017-09-13T02:12:16.177Z,0
2017-09-13T02:13:16.894Z,0
2017-09-13T02:14:17.610Z,0
2017-09-13T02:15:18.327Z,0
2017-09-13T02:16:19.043Z,0
2017-09-13T02:17:19.761Z,0
2017-09-13T02:18:20.477Z,0
2017-09-13T02:19:21.214Z,0
2017-09-13T02:20:21.932Z,0
2017-09-13T02:21:22.646Z,0
2017-09-13T02:22:23.426Z,0
2017-09-13T02:23:24.101Z,0
2017-09-13T02:24:24.817Z,0
2017-09-13T02:25:25.534Z,0
2017-09-13T02:26:26.273Z,0
2017-09-13T02:27:26.988Z,0
2017-09-13T02:28:27.705Z,0
2017-09-13T02:29:28.424Z,0
2017-09-13T02:30:29.138Z,0
2017-09-13T02:31:29.854Z,0
2017-09-13T02:32:30.571Z,0
2017-09-13T02:33:31.307Z,0
2017-09-13T02:34:32.025Z,0
2017-09-13T02:35:32.739Z,0
2017-09-13T02:36:33.455Z,0
2017-09-13T02:37:34.194Z,0
2017-09-13T02:38:34.932Z,0
2017-09-13T02:39:35.669Z,0
2017-09-13T02:40:36.385Z,0
2017-09-13T02:41:37.102Z,0
2017-09-13T02:42:37.819Z,0
2017-09-13T02:43:38.534Z,0
2017-09-13T02:44:39.253Z,0
2017-09-13T02:45:39.968Z,0
2017-09-13T02:46:40.691Z,0
2017-09-13T02:47:41.401Z,0
2017-09-13T02:48:42.116Z,0
2017-09-13T02:49:42.833Z,0
2017-09-13T02:50:43.550Z,0
2017-09-13T02:51:44.264Z,0
2017-09-13T02:52:44.980Z,0
2017-09-13T02:53:45.694Z,0
2017-09-13T02:54:46.411Z,0
2017-09-13T02:55:47.130Z,0
2017-09-13T02:56:47.846Z,0
2017-09-13T02:57:48.587Z,0
2017-09-13T02:58:49.297Z,0
2017-09-13T02:59:50.031Z,0
2017-09-13T03:00:50.752Z,0
2017-09-13T03:01:51.464Z,0
2017-09-13T03:02:52.181Z,0
2017-09-13T03:03:52.899Z,0
2017-09-13T03:04:53.615Z,0
2017-09-13T03:05:54.331Z,0
2017-09-13T03:06:55.066Z,0
2017-09-13T03:07:55.784Z,0
2017-09-13T03:08:56.501Z,0
2017-09-13T03:09:57.219Z,0
2017-09-13T03:10:57.935Z,0
2017-09-13T03:11:58.650Z,0
2017-09-13T03:12:59.368Z,0
2017-09-13T03:14:00.084Z,0
2017-09-13T03:15:00.804Z,0
2017-09-13T03:16:01.524Z,0
2017-09-13T03:17:02.255Z,0
2017-09-13T03:18:02.972Z,0
2017-09-13T03:19:03.708Z,0
2017-09-13T03:20:04.422Z,0
2017-09-13T03:21:05.138Z,0
2017-09-13T03:22:05.876Z,0
2017-09-13T03:23:06.592Z,0
2017-09-13T03:24:07.307Z,0
2017-09-13T03:25:08.026Z,0
2017-09-13T03:26:08.740Z,0
2017-09-13T03:27:09.456Z,0
2017-09-13T03:28:10.173Z,0
2017-09-13T03:29:10.888Z,0
2017-09-13T03:30:11.604Z,0
2017-09-13T03:31:12.320Z,0
2017-09-13T03:32:13.036Z,0
2017-09-13T03:33:13.767Z,0
2017-09-13T03:34:14.486Z,0
2017-09-13T03:35:15.221Z,0
2017-09-13T03:36:15.939Z,0
2017-09-13T03:37:16.656Z,0
2017-09-13T03:38:17.370Z,0
2017-09-13T03:39:18.088Z,0
2017-09-13T03:40:18.800Z,0
2017-09-13T03:41:19.516Z,0
2017-09-13T03:42:20.232Z,0
2017-09-13T03:43:20.972Z,0
2017-09-13T03:44:21.709Z,0
2017-09-13T03:45:22.423Z,0
2017-09-13T03:46:23.158Z,0
2017-09-13T03:47:23.875Z,0
2017-09-13T03:48:24.591Z,0
2017-09-13T03:49:25.305Z,0
2017-09-13T03:50:26.023Z,0
2017-09-13T03:51:26.736Z,0
2017-09-13T03:52:27.454Z,0
2017-09-13T03:53:28.170Z,0
2017-09-13T03:54:28.888Z,0
2017-09-13T03:55:29.602Z,0
2017-09-13T03:56:30.319Z,0
2017-09-13T03:57:31.033Z,0
2017-09-13T03:58:31.752Z,0
2017-09-13T03:59:32.466Z,0
2017-09-13T04:00:33.203Z,0
2017-09-13T04:01:33.941Z,0
2017-09-13T04:02:34.656Z,0
2017-09-13T04:03:35.393Z,0
2017-09-13T04:04:36.107Z,0
2017-09-13T04:05:36.823Z,0
2017-09-13T04:06:37.541Z,0
2017-09-13T04:07:38.256Z,0
2017-09-13T04:08:38.973Z,0
2017-09-13T04:09:39.690Z,0
2017-09-13T04:10:40.406Z,0
2017-09-13T04:11:41.122Z,0
2017-09-13T04:12:41.837Z,0
2017-09-13T04:13:42.554Z,0
2017-09-13T04:14:43.288Z,0
2017-09-13T04:15:44.005Z,0
2017-09-13T04:16:44.720Z,0
2017-09-13T04:17:45.457Z,0
2017-09-13T04:18:46.173Z,0
2017-09-13T04:19:46.885Z,0
2017-09-13T04:20:47.621Z,0
2017-09-13T04:21:48.338Z,0
2017-09-13T04:22:49.055Z,0
2017-09-13T04:23:49.774Z,0
2017-09-13T04:24:50.490Z,0
2017-09-13T04:25:51.206Z,0
2017-09-13T04:26:51.921Z,0
2017-09-13T04:27:52.647Z,0
2017-09-13T04:28:53.376Z,0
2017-09-13T04:29:54.090Z,0
2017-09-13T04:30:54.807Z,0
2017-09-13T04:31:55.519Z,0
2017-09-13T04:32:56.254Z,0
2017-09-13T04:33:56.972Z,0
2017-09-13T04:34:57.685Z,0
2017-09-13T04:35:58.403Z,0
2017-09-13T04:36:59.120Z,0
2017-09-13T04:37:59.837Z,0
2017-09-13T04:39:00.554Z,0
2017-09-13T04:40:01.266Z,0
2017-09-13T04:41:01.983Z,0
2017-09-13T04:42:02.699Z,0
2017-09-13T04:43:03.436Z,0
2017-09-13T04:44:04.150Z,0
2017-09-13T04:45:04.866Z,0
2017-09-13T04:46:05.579Z,0
2017-09-13T04:47:06.296Z,0
2017-09-13T04:48:07.012Z,0
2017-09-13T04:49:07.746Z,0
2017-09-13T04:50:08.462Z,0
2017-09-13T04:51:09.180Z,0
2017-09-13T04:52:09.914Z,0
2017-09-13T04:53:10.628Z,0
2017-09-13T04:54:11.348Z,0
2017-09-13T04:55:12.082Z,0
2017-09-13T04:56:12.818Z,0
2017-09-13T04:57:13.535Z,0
2017-09-13T04:58:14.252Z,0
2017-09-13T04:59:14.970Z,0
2017-09-13T05:00:15.686Z,0
2017-09-13T05:01:16.401Z,0
2017-09-13T05:02:17.117Z,0
2017-09-13T05:03:17.834Z,0
2017-09-13T05:04:18.549Z,0
2017-09-13T05:05:19.265Z,0
2017-09-13T05:06:20.001Z,0
2017-09-13T05:07:20.718Z,0
2017-09-13T05:08:21.433Z,0
2017-09-13T05:09:22.169Z,0
2017-09-13T05:10:22.889Z,0
2017-09-13T05:11:23.602Z,0
2017-09-13T05:12:24.323Z,0
2017-09-13T05:13:25.040Z,0
2017-09-13T05:14:25.776Z,0
2017-09-13T05:15:26.513Z,0
2017-09-13T05:16:27.253Z,0
2017-09-13T05:17:27.970Z,0
2017-09-13T05:18:28.688Z,0
2017-09-13T05:19:29.403Z,0
2017-09-13T05:20:30.126Z,0
2017-09-13T05:21:30.840Z,0
2017-09-13T05:22:31.573Z,0
2017-09-13T05:23:32.293Z,0
2017-09-13T05:24:33.009Z,5
2017-09-13T05:25:33.746Z,5
2017-09-13T05:26:34.467Z,5
2017-09-13T05:27:35.183Z,5
2017-09-13T05:28:35.903Z,5
2017-09-13T05:29:36.625Z,5
2017-09-13T05:30:37.339Z,5
2017-09-13T05:31:38.058Z,5
2017-09-13T05:32:38.777Z,5
2017-09-13T05:33:39.494Z,5
2017-09-13T05:34:40.212Z,5
2017-09-13T05:35:40.929Z,5
2017-09-13T05:36:41.647Z,5
2017-09-13T05:37:42.366Z,10
2017-09-13T05:38:43.105Z,5
2017-09-13T05:39:43.822Z,5
2017-09-13T05:40:44.541Z,5
2017-09-13T05:41:45.258Z,10
2017-09-13T05:42:45.980Z,10
2017-09-13T05:43:46.717Z,5
2017-09-13T05:44:47.435Z,5
2017-09-13T05:45:48.175Z,5
2017-09-13T05:46:48.892Z,5
2017-09-13T05:47:49.613Z,5
2017-09-13T05:48:50.329Z,10
2017-09-13T05:49:51.066Z,5
2017-09-13T05:50:51.788Z,10
2017-09-13T05:51:52.531Z,10
2017-09-13T05:52:53.246Z,10
2017-09-13T05:53:53.964Z,15
2017-09-13T05:54:54.686Z,15
2017-09-13T05:55:55.406Z,15
2017-09-13T05:56:56.131Z,15
2017-09-13T05:57:56.845Z,15
2017-09-13T05:58:57.566Z,20
2017-09-13T05:59:58.286Z,15
2017-09-13T06:00:59.004Z,15
2017-09-13T06:01:59.725Z,10
2017-09-13T06:03:00.444Z,15
2017-09-13T06:04:01.159Z,20
2017-09-13T06:05:01.879Z,30
2017-09-13T06:06:02.600Z,35
2017-09-13T06:07:03.318Z,30
2017-09-13T06:08:04.036Z,30
2017-09-13T06:09:04.759Z,20
2017-09-13T06:10:05.479Z,35
2017-09-13T06:11:06.199Z,35
2017-09-13T06:12:06.919Z,15
2017-09-13T06:13:07.639Z,20
2017-09-13T06:14:08.381Z,40
2017-09-13T06:15:09.121Z,30
2017-09-13T06:16:09.862Z,45
2017-09-13T06:17:10.602Z,35
2017-09-13T06:18:11.321Z,40
2017-09-13T06:19:12.044Z,40
2017-09-13T06:20:12.759Z,40
2017-09-13T06:21:13.480Z,55
2017-09-13T06:22:14.201Z,60
2017-09-13T06:23:14.920Z,55
2017-09-13T06:24:15.638Z,40
2017-09-13T06:25:16.364Z,50
2017-09-13T06:26:17.083Z,50
2017-09-13T06:27:17.805Z,60
2017-09-13T06:28:18.525Z,60
2017-09-13T06:29:19.246Z,50
2017-09-13T06:30:19.966Z,30
2017-09-13T06:31:20.708Z,25
2017-09-13T06:32:21.430Z,30
2017-09-13T06:33:22.149Z,25
2017-09-13T06:34:22.869Z,15
2017-09-13T06:35:23.591Z,20
2017-09-13T06:36:24.309Z,15
2017-09-13T06:37:25.026Z,20
2017-09-13T06:38:25.745Z,25
2017-09-13T06:39:26.464Z,20
2017-09-13T06:40:27.182Z,20
2017-09-13T06:41:27.902Z,20
2017-09-13T06:42:28.619Z,20
2017-09-13T06:43:29.343Z,25
2017-09-13T06:44:30.057Z,25
2017-09-13T06:45:30.795Z,25
2017-09-13T06:46:31.536Z,25
2017-09-13T06:47:32.256Z,55
2017-09-13T06:48:32.976Z,65
2017-09-13T06:49:33.715Z,60
2017-09-13T06:50:34.436Z,50
2017-09-13T06:51:35.157Z,60
2017-09-13T06:52:35.876Z,95
2017-09-13T06:53:36.598Z,115
2017-09-13T06:54:37.321Z,130
2017-09-13T06:55:38.060Z,185
2017-09-13T06:56:38.783Z,485
2017-09-13T06:57:39.503Z,435
2017-09-13T06:58:40.225Z,225
2017-09-13T06:59:40.950Z,220
2017-09-13T07:00:41.675Z,250
2017-09-13T07:01:42.397Z,440
2017-09-13T07:02:43.142Z,255
2017-09-13T07:03:43.865Z,265
2017-09-13T07:04:44.590Z,240
2017-09-13T07:05:45.315Z,235
2017-09-13T07:06:46.041Z,355
2017-09-13T07:07:46.764Z,530
2017-09-13T07:08:47.508Z,480
2017-09-13T07:09:48.235Z,380
2017-09-13T07:10:48.958Z,560
2017-09-13T07:11:49.683Z,295
2017-09-13T07:12:50.408Z,445
2017-09-13T07:13:51.137Z,680
2017-09-13T07:14:51.880Z,440
2017-09-13T07:15:52.611Z,705
2017-09-13T07:16:53.360Z,695
2017-09-13T07:17:54.086Z,285
2017-09-13T07:18:54.812Z,220
2017-09-13T07:19:55.537Z,535
2017-09-13T07:20:56.263Z,380
2017-09-13T07:21:56.992Z,505
2017-09-13T07:22:57.718Z,705
2017-09-13T07:23:58.446Z,530
2017-09-13T07:24:59.175Z,480
2017-09-13T07:25:59.924Z,300
2017-09-13T07:27:00.652Z,445
2017-09-13T07:28:01.402Z,345
2017-09-13T07:29:02.133Z,350
2017-09-13T07:30:02.859Z,525
2017-09-13T07:31:03.584Z,275
2017-09-13T07:32:04.332Z,305
2017-09-13T07:33:05.058Z,270
2017-09-13T07:34:05.804Z,265
2017-09-13T07:35:06.532Z,275
2017-09-13T07:36:07.262Z,295
2017-09-13T07:37:07.991Z,255
2017-09-13T07:38:08.717Z,185
2017-09-13T07:39:09.462Z,150
2017-09-13T07:40:10.187Z,130
2017-09-13T07:41:10.912Z,105
2017-09-13T07:42:11.642Z,100
2017-09-13T07:43:12.368Z,115
2017-09-13T07:44:13.115Z,140
2017-09-13T07:45:13.867Z,180
2017-09-13T07:46:14.562Z,240
2017-09-13T07:47:15.286Z,250
2017-09-13T07:48:16.012Z,210
2017-09-13T07:49:16.758Z,185
2017-09-13T07:50:17.483Z,135
2017-09-13T07:51:18.205Z,90
2017-09-13T07:52:18.927Z,100
2017-09-13T07:53:19.653Z,95
2017-09-13T07:54:20.376Z,65
2017-09-13T07:55:21.098Z,105
2017-09-13T07:56:21.818Z,95
2017-09-13T07:57:22.545Z,85
2017-09-13T07:58:23.289Z,85
2017-09-13T07:59:24.013Z,75
2017-09-13T08:00:24.733Z,75
2017-09-13T08:01:25.458Z,100
2017-09-13T08:02:26.202Z,110
2017-09-13T08:03:26.924Z,75
2017-09-13T08:04:27.670Z,75
2017-09-13T08:05:28.413Z,70
2017-09-13T08:06:29.135Z,75
2017-09-13T08:07:29.857Z,105
2017-09-13T08:08:30.584Z,140
2017-09-13T08:09:31.309Z,165
2017-09-13T08:10:32.031Z,190
2017-09-13T08:11:32.760Z,160
2017-09-13T08:12:33.503Z,200
2017-09-13T08:13:34.231Z,280
2017-09-13T08:14:34.974Z,345
2017-09-13T08:15:35.697Z,180
2017-09-13T08:16:36.445Z,105
2017-09-13T08:17:37.171Z,110
2017-09-13T08:18:37.891Z,135
2017-09-13T08:19:38.615Z,175
2017-09-13T08:20:39.340Z,160
2017-09-13T08:21:40.067Z,235
2017-09-13T08:22:40.790Z,315
2017-09-13T08:23:41.531Z,390
2017-09-13T08:24:42.259Z,360
2017-09-13T08:25:42.985Z,200
2017-09-13T08:26:43.709Z,155
2017-09-13T08:27:44.456Z,125
2017-09-13T08:28:45.200Z,140
2017-09-13T08:29:45.925Z,160
2017-09-13T08:30:46.651Z,160
2017-09-13T08:31:47.397Z,170
2017-09-13T08:32:48.120Z,195
2017-09-13T08:33:48.860Z,205
2017-09-13T08:34:49.584Z,230
2017-09-13T08:35:50.308Z,310
2017-09-13T08:36:51.032Z,295
2017-09-13T08:37:51.753Z,300
2017-09-13T08:38:52.480Z,320
2017-09-13T08:39:53.228Z,445
2017-09-13T08:40:53.975Z,425
2017-09-13T08:41:54.701Z,435
2017-09-13T08:42:55.427Z,405
2017-09-13T08:43:56.151Z,475
2017-09-13T08:44:56.876Z,425
2017-09-13T08:45:57.601Z,295
2017-09-13T08:46:58.324Z,300
2017-09-13T08:47:59.068Z,295
2017-09-13T08:48:59.794Z,330
2017-09-13T08:50:00.521Z,450
2017-09-13T08:51:01.246Z,780
2017-09-13T08:52:01.971Z,220
2017-09-13T08:53:02.699Z,170
2017-09-13T08:54:03.425Z,155
2017-09-13T08:55:04.148Z,125
2017-09-13T08:56:04.875Z,110
2017-09-13T08:57:05.601Z,95
2017-09-13T08:58:06.328Z,105
2017-09-13T08:59:07.050Z,90
2017-09-13T09:00:07.769Z,85
2017-09-13T09:01:08.493Z,80
2017-09-13T09:02:09.217Z,80
2017-09-13T09:03:09.941Z,90
2017-09-13T09:04:10.667Z,100
2017-09-13T09:05:11.388Z,110
2017-09-13T09:06:12.111Z,80
2017-09-13T09:07:12.854Z,70
2017-09-13T09:08:13.597Z,95
2017-09-13T09:09:14.320Z,165
2017-09-13T09:10:15.068Z,150
2017-09-13T09:11:15.789Z,195
2017-09-13T09:12:16.517Z,300
2017-09-13T09:13:17.240Z,375
2017-09-13T09:14:17.963Z,235
2017-09-13T09:15:18.710Z,185
2017-09-13T09:16:19.434Z,150
2017-09-13T09:17:20.158Z,120
2017-09-13T09:18:20.887Z,100
2017-09-13T09:19:21.625Z,85
2017-09-13T09:20:22.368Z,60
2017-09-13T09:21:23.093Z,50
2017-09-13T09:22:23.817Z,50
2017-09-13T09:23:24.539Z,45
2017-09-13T09:24:25.260Z,40
2017-09-13T09:25:26.002Z,40
2017-09-13T09:26:26.747Z,50
2017-09-13T09:27:27.470Z,35
2017-09-13T09:28:28.191Z,35
2017-09-13T09:29:28.923Z,55
2017-09-13T09:30:29.663Z,70
2017-09-13T09:31:30.386Z,120
2017-09-13T09:32:31.111Z,110
2017-09-13T09:33:31.829Z,75
2017-09-13T09:34:32.550Z,90
2017-09-13T09:35:33.277Z,120
2017-09-13T09:36:34.023Z,135
2017-09-13T09:37:34.743Z,200
2017-09-13T09:38:35.471Z,235
2017-09-13T09:39:36.190Z,215
2017-09-13T09:40:36.913Z,220
2017-09-13T09:41:37.637Z,305
2017-09-13T09:42:38.366Z,525
2017-09-13T09:43:39.089Z,1915
2017-09-13T09:44:39.819Z,1040
2017-09-13T09:45:40.545Z,430
2017-09-13T09:46:41.275Z,1280
2017-09-13T09:47:42.005Z,250
2017-09-13T09:48:42.730Z,180
2017-09-13T09:49:43.457Z,140
2017-09-13T09:50:44.185Z,135
2017-09-13T09:51:44.911Z,125
2017-09-13T09:52:45.637Z,100
2017-09-13T09:53:46.361Z,75
2017-09-13T09:54:47.108Z,65
2017-09-13T09:55:47.831Z,85
2017-09-13T09:56:48.558Z,115
2017-09-13T09:57:49.304Z,95
2017-09-13T09:58:50.037Z,115
2017-09-13T09:59:50.754Z,135
2017-09-13T10:00:51.479Z,220
2017-09-13T10:01:52.203Z,225
2017-09-13T10:02:52.931Z,1750
2017-09-13T10:03:53.658Z,1690
2017-09-13T10:04:54.388Z,1975
2017-09-13T10:05:55.121Z,2005
2017-09-13T10:06:55.850Z,520
2017-09-13T10:07:56.580Z,355
2017-09-13T10:08:57.315Z,1245
2017-09-13T10:09:58.047Z,265
2017-09-13T10:10:58.779Z,1935
2017-09-13T10:11:59.512Z,2010
2017-09-13T10:13:00.242Z,380
2017-09-13T10:14:00.976Z,285
2017-09-13T10:15:01.706Z,290
2017-09-13T10:16:02.457Z,330
2017-09-13T10:17:03.184Z,1940
2017-09-13T10:18:03.915Z,315
2017-09-13T10:19:04.667Z,305
2017-09-13T10:20:05.414Z,400
2017-09-13T10:21:06.143Z,2085
2017-09-13T10:22:06.897Z,2045
2017-09-13T10:23:07.629Z,2060
2017-09-13T10:24:08.384Z,875
2017-09-13T10:25:09.135Z,515
2017-09-13T10:26:09.873Z,2230
2017-09-13T10:27:10.625Z,855
2017-09-13T10:28:11.358Z,430
2017-09-13T10:29:12.090Z,690
2017-09-13T10:30:12.826Z,400
2017-09-13T10:31:13.555Z,350
2017-09-13T10:32:14.283Z,340
2017-09-13T10:33:15.034Z,430
2017-09-13T10:34:15.766Z,345
2017-09-13T10:35:16.498Z,1200
2017-09-13T10:36:17.227Z,520
2017-09-13T10:37:17.957Z,2075
2017-09-13T10:38:18.690Z,555
2017-09-13T10:39:19.422Z,490
2017-09-13T10:40:20.175Z,600
2017-09-13T10:41:20.908Z,2015
2017-09-13T10:42:21.641Z,635
2017-09-13T10:43:22.395Z,570
2017-09-13T10:44:23.126Z,710
2017-09-13T10:45:23.880Z,610
2017-09-13T10:46:24.613Z,1860
2017-09-13T10:47:25.346Z,485
2017-09-13T10:48:26.079Z,2080
2017-09-13T10:49:26.812Z,480
2017-09-13T10:50:27.547Z,1395
2017-09-13T10:51:28.278Z,1560
2017-09-13T10:52:29.009Z,425
2017-09-13T10:53:29.741Z,670
2017-09-13T10:54:30.469Z,540
2017-09-13T10:55:31.204Z,465
2017-09-13T10:56:31.953Z,285
2017-09-13T10:57:32.684Z,325
2017-09-13T10:58:33.416Z,335
2017-09-13T10:59:34.149Z,2070
2017-09-13T11:00:34.880Z,1995
2017-09-13T11:01:35.612Z,600
2017-09-13T11:02:36.345Z,2085
2017-09-13T11:03:37.080Z,2045
2017-09-13T11:04:37.816Z,2100
2017-09-13T11:05:38.551Z,2045
2017-09-13T11:06:39.287Z,2055
2017-09-13T11:07:40.024Z,2085
2017-09-13T11:08:40.780Z,2125
2017-09-13T11:09:41.519Z,2285
2017-09-13T11:10:42.257Z,2210
2017-09-13T11:11:42.997Z,2140
2017-09-13T11:12:43.762Z,2090
2017-09-13T11:13:44.502Z,2100
2017-09-13T11:14:45.245Z,2015
2017-09-13T11:15:46.009Z,1985
2017-09-13T11:16:46.749Z,2175
2017-09-13T11:17:47.494Z,2155
2017-09-13T11:18:48.258Z,2175
2017-09-13T11:19:49.000Z,2125
2017-09-13T11:20:49.740Z,2045
2017-09-13T11:21:50.478Z,2210
2017-09-13T11:22:51.237Z,480
2017-09-13T11:23:51.979Z,2225
2017-09-13T11:24:52.716Z,2210
2017-09-13T11:25:53.475Z,2165
2017-09-13T11:26:54.212Z,2110
2017-09-13T11:27:54.952Z,2125
2017-09-13T11:28:55.695Z,2090
2017-09-13T11:29:56.430Z,2095
2017-09-13T11:30:57.169Z,2120
2017-09-13T11:31:57.912Z,2155
2017-09-13T11:32:58.648Z,2225
2017-09-13T11:33:59.393Z,2250
2017-09-13T11:35:00.148Z,2120
2017-09-13T11:36:00.911Z,2180
2017-09-13T11:37:01.649Z,2320
2017-09-13T11:38:02.388Z,2230
2017-09-13T11:39:03.126Z,2095
2017-09-13T11:40:03.867Z,2120
2017-09-13T11:41:04.604Z,1045
2017-09-13T11:42:05.362Z,700
2017-09-13T11:43:06.098Z,2095
2017-09-13T11:44:06.857Z,2105
2017-09-13T11:45:07.617Z,2065
2017-09-13T11:46:08.373Z,2020
2017-09-13T11:47:09.112Z,2040
2017-09-13T11:48:09.855Z,2175
2017-09-13T11:49:10.612Z,2065
2017-09-13T11:50:11.351Z,2020
2017-09-13T11:51:12.090Z,2110
2017-09-13T11:52:12.832Z,2030
2017-09-13T11:53:13.572Z,2090
2017-09-13T11:54:14.310Z,2090
2017-09-13T11:55:15.045Z,2120
2017-09-13T11:56:15.792Z,2270
2017-09-13T11:57:16.531Z,2445
2017-09-13T11:58:17.272Z,2330
2017-09-13T11:59:18.013Z,2240
2017-09-13T12:00:18.772Z,2165
2017-09-13T12:01:19.528Z,2105
2017-09-13T12:02:20.269Z,2155
2017-09-13T12:03:21.005Z,2210
2017-09-13T12:04:21.766Z,2205
2017-09-13T12:05:22.510Z,2165
2017-09-13T12:06:23.247Z,2130
2017-09-13T12:07:24.006Z,2125
2017-09-13T12:08:24.748Z,2160
2017-09-13T12:09:25.484Z,2230
2017-09-13T12:10:26.224Z,2280
2017-09-13T12:11:26.983Z,2250
2017-09-13T12:12:27.722Z,2145
2017-09-13T12:13:28.485Z,2290
2017-09-13T12:14:29.227Z,2255
2017-09-13T12:15:29.962Z,2135
2017-09-13T12:16:30.701Z,2125
2017-09-13T12:17:31.441Z,2160
2017-09-13T12:18:32.180Z,2190
2017-09-13T12:19:32.919Z,2160
2017-09-13T12:20:33.663Z,310
2017-09-13T12:21:34.403Z,2210
2017-09-13T12:22:35.160Z,285
2017-09-13T12:23:35.901Z,2110
2017-09-13T12:24:36.642Z,2185
2017-09-13T12:25:37.401Z,1995
2017-09-13T12:26:38.138Z,2225
2017-09-13T12:27:38.902Z,2100
2017-09-13T12:28:39.641Z,2110
2017-09-13T12:29:40.380Z,2055
2017-09-13T12:30:41.120Z,2025
2017-09-13T12:31:41.859Z,2255
2017-09-13T12:32:42.598Z,420
2017-09-13T12:33:43.336Z,2125
2017-09-13T12:34:44.083Z,2160
2017-09-13T12:35:44.818Z,1860
2017-09-13T12:36:45.557Z,410
2017-09-13T12:37:46.294Z,390
2017-09-13T12:38:47.051Z,315
2017-09-13T12:39:47.791Z,360
2017-09-13T12:40:48.525Z,2210
2017-09-13T12:41:49.282Z,370
2017-09-13T12:42:50.016Z,415
2017-09-13T12:43:50.754Z,2200
2017-09-13T12:44:51.495Z,385
2017-09-13T12:45:52.250Z,2170
2017-09-13T12:46:52.989Z,2220
2017-09-13T12:47:53.724Z,340
2017-09-13T12:48:54.462Z,2200
2017-09-13T12:49:55.198Z,335
2017-09-13T12:50:55.933Z,325
2017-09-13T12:51:56.687Z,2290
2017-09-13T12:52:57.423Z,1860
2017-09-13T12:53:58.157Z,2115
2017-09-13T12:54:58.891Z,560
2017-09-13T12:55:59.625Z,350
2017-09-13T12:57:00.358Z,415
2017-09-13T12:58:01.095Z,455
2017-09-13T12:59:01.827Z,2045
2017-09-13T13:00:02.585Z,355
2017-09-13T13:01:03.335Z,255
2017-09-13T13:02:04.064Z,330
2017-09-13T13:03:04.796Z,2095
2017-09-13T13:04:05.529Z,270
2017-09-13T13:05:06.262Z,280
2017-09-13T13:06:06.995Z,2125
2017-09-13T13:07:07.724Z,420
2017-09-13T13:08:08.479Z,2045
2017-09-13T13:09:09.231Z,2170
2017-09-13T13:10:09.964Z,2180
2017-09-13T13:11:10.697Z,390
2017-09-13T13:12:11.430Z,2030
2017-09-13T13:13:12.162Z,1640
2017-09-13T13:14:12.897Z,420
2017-09-13T13:15:13.627Z,2075
2017-09-13T13:16:14.359Z,285
2017-09-13T13:17:15.092Z,740
2017-09-13T13:18:15.824Z,1975
2017-09-13T13:19:16.555Z,230
2017-09-13T13:20:17.284Z,190
2017-09-13T13:21:18.013Z,220
2017-09-13T13:22:18.765Z,460
2017-09-13T13:23:19.496Z,415
2017-09-13T13:24:20.256Z,2080
2017-09-13T13:25:20.982Z,445
2017-09-13T13:26:21.712Z,430
2017-09-13T13:27:22.468Z,2005
2017-09-13T13:28:23.200Z,1940
2017-09-13T13:29:23.954Z,1795
2017-09-13T13:30:24.688Z,1810
2017-09-13T13:31:25.420Z,1955
2017-09-13T13:32:26.156Z,680
2017-09-13T13:33:26.889Z,2195
2017-09-13T13:34:27.620Z,2100
2017-09-13T13:35:28.357Z,2010
2017-09-13T13:36:29.093Z,2065
2017-09-13T13:37:29.824Z,1925
2017-09-13T13:38:30.577Z,1875
2017-09-13T13:39:31.314Z,1955
2017-09-13T13:40:32.054Z,1925
2017-09-13T13:41:32.793Z,1880
2017-09-13T13:42:33.535Z,1845
2017-09-13T13:43:34.272Z,1725
2017-09-13T13:44:35.011Z,1715
2017-09-13T13:45:35.750Z,1775
2017-09-13T13:46:36.496Z,1755
2017-09-13T13:47:37.233Z,1725
2017-09-13T13:48:37.973Z,1780
2017-09-13T13:49:38.716Z,1980
2017-09-13T13:50:39.453Z,1825
2017-09-13T13:51:40.192Z,830
2017-09-13T13:52:40.932Z,1680
2017-09-13T13:53:41.675Z,1650
2017-09-13T13:54:42.412Z,1675
2017-09-13T13:55:43.150Z,1710
2017-09-13T13:56:43.893Z,1695
2017-09-13T13:57:44.631Z,545
2017-09-13T13:58:45.373Z,1690
2017-09-13T13:59:46.115Z,1790
2017-09-13T14:00:46.853Z,1730
2017-09-13T14:01:47.593Z,1660
2017-09-13T14:02:48.335Z,1685
2017-09-13T14:03:49.077Z,1655
2017-09-13T14:04:49.816Z,1605
2017-09-13T14:05:50.577Z,1585
2017-09-13T14:06:51.318Z,1545
2017-09-13T14:07:52.054Z,1565
2017-09-13T14:08:52.815Z,1600
2017-09-13T14:09:53.575Z,1620
2017-09-13T14:10:54.316Z,1700
2017-09-13T14:11:55.049Z,1620
2017-09-13T14:12:55.809Z,1560
2017-09-13T14:13:56.550Z,1545
2017-09-13T14:14:57.289Z,1465
2017-09-13T14:15:58.049Z,1455
2017-09-13T14:16:58.789Z,1450
2017-09-13T14:17:59.546Z,1410